createdAt,value
2022-12-06T00:01:42.710Z,100.00
2022-12-06T00:06:39.129Z,100.00
2022-12-06T00:11:36.042Z,100.00
2022-12-06T00:16:29.059Z,100.00
2022-12-06T00:21:22.208Z,100.00
2022-12-06T00:26:14.762Z,100.00
2022-12-06T00:31:09.238Z,100.00
2022-12-06T00:36:04.340Z,100.00
2022-12-06T00:41:07.029Z,100.00
2022-12-06T00:45:59.168Z,100.00
2022-12-06T00:50:51.316Z,100.00
2022-12-06T00:55:44.166Z,100.00
2022-12-06T01:00:35.900Z,100.00
2022-12-06T01:05:27.921Z,100.00
2022-12-06T01:10:19.754Z,100.00
2022-12-06T01:15:11.503Z,100.00
2022-12-06T01:20:04.851Z,100.00
2022-12-06T01:24:56.565Z,99.73
2022-12-06T01:29:48.316Z,99.34
2022-12-06T01:34:40.163Z,99.28
2022-12-06T01:39:32.401Z,99.21
2022-12-06T01:44:58.368Z,98.47
2022-12-06T01:49:54.671Z,98.28
2022-12-06T01:54:46.864Z,98.38
2022-12-06T01:59:38.724Z,97.68
2022-12-06T02:04:31.900Z,97.11
2022-12-06T02:09:24.517Z,97.76
2022-12-06T02:14:23.826Z,97.27
2022-12-06T02:19:34.051Z,96.39
2022-12-06T02:24:56.947Z,96.05
2022-12-06T02:30:44.048Z,95.38
2022-12-06T02:35:39.071Z,95.10
2022-12-06T02:40:39.894Z,94.30
2022-12-06T02:45:36.047Z,93.98
2022-12-06T02:50:37.403Z,93.19
2022-12-06T02:55:30.362Z,92.98
2022-12-06T03:00:35.951Z,92.10
2022-12-06T03:05:38.554Z,92.23
2022-12-06T03:10:45.213Z,92.07
2022-12-06T03:15:42.311Z,91.65
2022-12-06T03:20:50.026Z,91.42
2022-12-06T03:25:43.510Z,91.92
2022-12-06T03:30:36.198Z,92.06
2022-12-06T03:35:31.842Z,93.31
2022-12-06T03:40:30.607Z,93.95
2022-12-06T03:45:31.899Z,94.06
2022-12-06T03:50:32.462Z,94.35
2022-12-06T03:55:24.135Z,94.59
2022-12-06T04:00:16.728Z,94.59
2022-12-06T04:05:08.956Z,94.87
2022-12-06T04:10:03.859Z,95.48
2022-12-06T04:14:55.650Z,95.23
2022-12-06T04:19:51.925Z,95.03
2022-12-06T04:24:44.051Z,95.49
2022-12-06T04:29:54.411Z,95.40
2022-12-06T04:35:04.366Z,95.58
2022-12-06T04:39:56.105Z,95.20
2022-12-06T04:44:47.980Z,95.51
2022-12-06T04:49:39.731Z,94.82
2022-12-06T04:54:31.951Z,94.48
2022-12-06T04:59:25.442Z,93.72
2022-12-06T05:04:17.288Z,93.30
2022-12-06T05:09:09.580Z,94.07
2022-12-06T05:14:01.242Z,94.54
2022-12-06T05:18:52.933Z,95.30
2022-12-06T05:23:44.582Z,95.69
2022-12-06T05:28:36.533Z,96.38
2022-12-06T05:33:28.829Z,97.07
2022-12-06T05:38:20.754Z,97.31
2022-12-06T05:43:13.329Z,97.64
2022-12-06T05:48:06.055Z,97.91
2022-12-06T05:52:59.860Z,98.25
2022-12-06T05:57:52.407Z,98.32
2022-12-06T06:02:44.811Z,98.39
2022-12-06T06:07:36.984Z,98.75
2022-12-06T06:12:28.655Z,99.33
2022-12-06T06:17:20.406Z,99.37
2022-12-06T06:22:12.150Z,99.92
2022-12-06T06:27:04.243Z,100.00
2022-12-06T06:31:56.444Z,100.00
2022-12-06T06:36:48.498Z,100.00
2022-12-06T06:41:40.210Z,100.00
2022-12-06T06:46:32.245Z,100.00
2022-12-06T06:51:24.207Z,100.00
2022-12-06T06:56:16.134Z,100.00
2022-12-06T07:01:09.820Z,100.00
2022-12-06T07:06:08.382Z,100.00
2022-12-06T07:11:00.795Z,100.00
2022-12-06T07:15:53.507Z,100.00
2022-12-06T07:20:46.321Z,100.00
2022-12-06T07:25:39.046Z,100.00
2022-12-06T07:30:30.751Z,100.00
2022-12-06T07:35:23.122Z,100.00
2022-12-06T07:40:16.128Z,100.00
2022-12-06T07:45:09.255Z,100.00
2022-12-06T07:50:01.292Z,100.00
2022-12-06T07:54:53.269Z,100.00
2022-12-06T07:59:45.015Z,100.00
2022-12-06T08:04:37.090Z,100.00
2022-12-06T08:09:29.126Z,100.00
2022-12-06T08:14:20.821Z,99.82
2022-12-06T08:19:12.649Z,99.83
2022-12-06T08:24:04.604Z,99.51
2022-12-06T08:28:56.337Z,99.92
2022-12-06T08:33:48.476Z,100.00
2022-12-06T08:38:40.799Z,100.00
2022-12-06T08:43:32.837Z,100.00
2022-12-06T08:48:24.769Z,100.00
2022-12-06T08:53:16.556Z,100.00
2022-12-06T08:58:08.701Z,100.00
2022-12-06T09:03:00.399Z,100.00
2022-12-06T09:07:52.360Z,100.00
2022-12-06T09:12:44.043Z,100.00
2022-12-06T09:17:36.112Z,100.00
2022-12-06T09:22:28.277Z,100.00
2022-12-06T09:27:20.372Z,100.00
2022-12-06T09:32:12.088Z,100.00
2022-12-06T09:37:11.656Z,100.00
2022-12-06T09:42:15.245Z,99.57
2022-12-06T09:47:44.776Z,99.60
2022-12-06T09:52:41.705Z,98.26
2022-12-06T09:57:42.916Z,98.21
2022-12-06T10:02:58.256Z,97.77
2022-12-06T10:08:29.184Z,97.54
2022-12-06T10:13:45.547Z,97.04
2022-12-06T10:18:52.270Z,97.50
2022-12-06T10:24:02.373Z,97.41
2022-12-06T10:29:17.259Z,97.91
2022-12-06T10:34:21.022Z,98.42
2022-12-06T10:39:24.159Z,98.10
2022-12-06T10:44:56.667Z,98.70
2022-12-06T10:50:03.697Z,98.22
2022-12-06T10:55:13.671Z,97.77
2022-12-06T11:00:25.120Z,97.40
2022-12-06T11:05:23.107Z,96.83
2022-12-06T11:10:27.065Z,98.10
2022-12-06T11:15:24.149Z,96.71
2022-12-06T11:20:29.084Z,95.19
2022-12-06T11:25:30.713Z,95.19
2022-12-06T11:30:22.921Z,94.86
2022-12-06T11:35:18.668Z,95.33
2022-12-06T11:40:25.854Z,95.44
2022-12-06T11:45:25.301Z,93.49
2022-12-06T11:50:20.028Z,94.60
2022-12-06T11:55:36.004Z,93.97
2022-12-06T12:00:29.107Z,94.87
2022-12-06T12:05:38.959Z,94.58
2022-12-06T12:10:39.707Z,92.22
2022-12-06T12:15:32.951Z,91.94
2022-12-06T12:20:28.389Z,90.98
2022-12-06T12:25:20.591Z,90.47
2022-12-06T12:30:15.513Z,90.95
2022-12-06T12:35:25.450Z,90.00
2022-12-06T12:40:41.961Z,90.70
2022-12-06T12:45:33.749Z,90.88
2022-12-06T12:50:26.459Z,90.07
2022-12-06T12:55:26.242Z,89.63
2022-12-06T13:00:33.042Z,89.81
2022-12-06T13:05:34.347Z,89.33
2022-12-06T13:10:34.246Z,90.76
2022-12-06T13:15:32.110Z,91.42
2022-12-06T13:20:30.591Z,90.52
2022-12-06T13:25:22.754Z,89.44
2022-12-06T13:30:23.964Z,88.53
2022-12-06T13:35:30.127Z,89.09
2022-12-06T13:40:33.800Z,88.76
2022-12-06T13:45:40.892Z,88.17
2022-12-06T13:50:32.517Z,86.98
2022-12-06T13:55:24.520Z,86.78
2022-12-06T14:00:49.379Z,87.94
2022-12-06T14:06:13.902Z,87.61
2022-12-06T14:11:12.445Z,87.81
2022-12-06T14:16:05.227Z,87.85
2022-12-06T14:20:58.184Z,89.28
2022-12-06T14:25:49.983Z,88.08
2022-12-06T14:30:43.761Z,88.76
2022-12-06T14:35:38.598Z,87.86
2022-12-06T14:41:09.478Z,88.33
2022-12-06T14:46:04.995Z,88.08
2022-12-06T14:51:01.364Z,87.77
2022-12-06T14:56:19.195Z,88.00
2022-12-06T15:01:27.032Z,87.39
2022-12-06T15:06:24.411Z,87.50
2022-12-06T15:11:35.949Z,87.64
2022-12-06T15:16:27.752Z,87.59
2022-12-06T15:21:19.711Z,87.06
2022-12-06T15:26:12.190Z,86.69
2022-12-06T15:31:30.375Z,87.04
2022-12-06T15:36:33.308Z,86.80
2022-12-06T15:41:27.194Z,86.09
2022-12-06T15:46:24.241Z,85.84
2022-12-06T15:51:20.769Z,86.35
2022-12-06T15:56:18.931Z,86.77
2022-12-06T16:01:18.289Z,87.19
2022-12-06T16:06:17.880Z,87.89
2022-12-06T16:11:12.729Z,87.73
2022-12-06T16:16:05.448Z,87.74
2022-12-06T16:20:57.198Z,87.94
2022-12-06T16:25:49.390Z,88.12
2022-12-06T16:30:42.113Z,87.47
2022-12-06T16:35:33.999Z,88.12
2022-12-06T16:40:28.149Z,89.06
2022-12-06T16:45:20.117Z,88.55
2022-12-06T16:50:25.022Z,89.98
2022-12-06T16:55:16.742Z,89.20
2022-12-06T17:00:10.583Z,89.32
2022-12-06T17:05:06.650Z,89.89
2022-12-06T17:09:59.662Z,90.07
2022-12-06T17:14:52.731Z,89.76
2022-12-06T17:19:44.728Z,89.78
2022-12-06T17:24:36.934Z,89.13
2022-12-06T17:29:28.792Z,89.59
2022-12-06T17:34:22.465Z,89.47
2022-12-06T17:39:17.261Z,90.05
2022-12-06T17:44:10.551Z,90.70
2022-12-06T17:49:02.665Z,91.06
2022-12-06T17:53:55.668Z,90.58
2022-12-06T17:58:47.482Z,90.91
2022-12-06T18:03:39.366Z,91.33
2022-12-06T18:08:31.071Z,91.23
2022-12-06T18:13:22.898Z,91.97
2022-12-06T18:18:14.730Z,92.27
2022-12-06T18:23:06.864Z,91.91
2022-12-06T18:27:58.596Z,92.04
2022-12-06T18:32:50.348Z,92.29
2022-12-06T18:37:42.290Z,92.76
2022-12-06T18:42:34.241Z,92.51
2022-12-06T18:47:26.112Z,92.74
2022-12-06T18:52:17.707Z,92.03
2022-12-06T18:57:09.476Z,92.43
2022-12-06T19:02:01.318Z,92.77
2022-12-06T19:06:53.198Z,92.59
2022-12-06T19:11:46.230Z,92.41
2022-12-06T19:16:41.104Z,92.79
2022-12-06T19:21:33.918Z,92.20
2022-12-06T19:26:27.217Z,92.00
2022-12-06T19:31:20.702Z,91.91
2022-12-06T19:36:24.984Z,92.04
2022-12-06T19:41:18.184Z,91.08
2022-12-06T19:46:15.650Z,91.33
2022-12-06T19:51:08.663Z,90.81
2022-12-06T19:56:00.689Z,90.89
2022-12-06T20:00:52.678Z,91.50
2022-12-06T20:05:44.432Z,91.65
2022-12-06T20:10:37.073Z,91.67
2022-12-06T20:15:29.008Z,91.36
2022-12-06T20:20:20.971Z,90.80
2022-12-06T20:25:12.739Z,91.27
2022-12-06T20:30:06.388Z,90.86
2022-12-06T20:34:58.080Z,90.80
2022-12-06T20:39:49.808Z,90.60
2022-12-06T20:44:41.507Z,90.66
2022-12-06T20:49:33.617Z,90.55
2022-12-06T20:54:25.563Z,90.75
2022-12-06T20:59:17.403Z,91.13
2022-12-06T21:04:12.846Z,91.00
2022-12-06T21:09:05.108Z,90.89
2022-12-06T21:13:57.943Z,91.10
2022-12-06T21:18:55.164Z,91.26
2022-12-06T21:23:46.875Z,91.09
2022-12-06T21:28:38.666Z,91.71
2022-12-06T21:33:30.517Z,91.56
2022-12-06T21:38:22.482Z,91.92
2022-12-06T21:43:14.174Z,91.50
2022-12-06T21:48:07.558Z,92.03
2022-12-06T21:52:59.405Z,92.45
2022-12-06T21:57:51.145Z,92.84
2022-12-06T22:02:44.018Z,92.35
2022-12-06T22:07:36.192Z,92.85
2022-12-06T22:12:28.310Z,93.05
2022-12-06T22:17:20.021Z,92.97
2022-12-06T22:22:12.404Z,92.88
2022-12-06T22:27:04.236Z,93.53
2022-12-06T22:31:56.819Z,93.66
2022-12-06T22:36:48.589Z,93.99
2022-12-06T22:41:40.277Z,93.28
2022-12-06T22:46:33.894Z,93.92
2022-12-06T22:51:31.196Z,93.77
2022-12-06T22:56:23.567Z,94.12
2022-12-06T23:01:18.560Z,93.94
2022-12-06T23:06:10.341Z,94.57
2022-12-06T23:11:11.845Z,94.29
2022-12-06T23:16:06.889Z,94.98
2022-12-06T23:21:26.489Z,94.34
2022-12-06T23:26:21.236Z,94.57
2022-12-06T23:31:15.857Z,93.77
2022-12-06T23:36:09.495Z,93.61
2022-12-06T23:41:02.961Z,93.80
2022-12-06T23:45:59.233Z,93.58
2022-12-06T23:51:23.069Z,93.44
2022-12-06T23:56:17.663Z,93.41
